Logo AVAMET
Benvolgut visitant, si us plau, ingressa Recuperar contrasenya
AVAMET paisatges

Tavernes de la Valldigna Poble

Dades diàries. Acumulats / Últims 30 dies disponibles

Data Temperatura (°C) Humitat rel. (%) Pressió rel. (hPa) Vent (km/h) Precipitació
Mínima Mitjana Màxima Amplitud
tèrmica
Mínima Mitjana Màxima Mínima Mitjana Màxima Predom. Mitjana Ràfega
màxima
Total
(mm)
Índex-n
Mínima Mitjana Màxima Mínima Mitjana Màxima n
0 a 1
P0 max
mm 5'
Dades mensuals acumulades fins l'últim dia disponible
02/2020 7,6 11,2 16,4 15,9 15,9 21,4 28,1 20,5 30 75 97 1.020 1.027 1.035   4,3 43,5 3,2
Dades anuals acumulades fins l'últim dia disponible
2020 4,8 9,6 16,4 14,0 12,1 19,4 28,1 23,3 30 78 98 1.012 1.026 1.035   4,5 80,5 192,4
Últims 30 dies disponibles
24-02-2020 10,1     16,0     23,6 13,5 40 62 84 1.021 1.025 1.031 SO 4,1 17,7 0,0
23-02-2020 7,9     14,2     21,9 14,0 53 76 94 1.030 1.033 1.035 SO 3,7 22,5 0,0
22-02-2020 8,4     14,0     19,4 11,0 51 78 92 1.030 1.032 1.035 SSO 3,4 19,3 0,0
21-02-2020 8,7     13,0     18,1 9,4 69 84 94 1.027 1.030 1.031 SSO 2,9 16,1 0,0
20-02-2020 9,4     13,3     17,9 8,5 65 84 95 1.024 1.026 1.029 SSO 3,8 16,1 0,0
19-02-2020 10,8     14,3     17,8 7,0 70 86 94 1.029 1.031 1.033 SSE 2,1 19,3 0,0
18-02-2020 14,7     15,3     16,2 1,5 80 85 93 1.030 1.031 1.033 E 1,8 24,1 3,0 0,64 1,60
17-02-2020 9,1     17,3     26,6 17,5 37 73 97 1.022 1.025 1.029 O 4,0 27,4 0,2
16-02-2020 11,0     15,1     22,2 11,2 68 87 96 1.024 1.026 1.028 S 2,1 17,7 0,0
15-02-2020 8,9     14,5     19,4 10,5 69 84 93 1.024 1.026 1.028 SSO 3,0 22,5 0,0
14-02-2020 12,1     16,3     22,3 10,2 50 68 84 1.024 1.025 1.026 SSO 3,7 17,7 0,0
13-02-2020 11,2     17,5     24,7 13,5 45 71 94 1.020 1.022 1.024 ONO 4,5 24,1 0,0
12-02-2020 11,9     15,4     20,2 8,3 62 82 92 1.023 1.024 1.025 SSO 2,9 17,7 0,0
11-02-2020 13,5     19,8     25,8 12,3 43 63 88 1.021 1.024 1.027 SSO 8,1 29,0 0,0
10-02-2020 15,8     19,8     25,1 9,3 47 58 66 1.026 1.028 1.031 ONO 11,2 33,8 0,0
09-02-2020 9,7     14,1     18,0 8,3 62 83 95 1.027 1.029 1.032 SO 2,5 19,3 0,0
08-02-2020 7,6     12,6     17,7 10,1 69 84 93 1.023 1.025 1.028 SSO 2,2 19,3 0,0
07-02-2020 8,7     12,2     18,2 9,5 59 81 92 1.023 1.025 1.026 SO 2,4 11,3 0,0
06-02-2020 8,1     12,0     15,9 7,8 72 84 95 1.025 1.027 1.029 SSO 1,9 17,7 0,0
05-02-2020 9,9     13,6     17,9 8,0 66 80 92 1.027 1.029 1.031 S 2,1 17,7 0,0
04-02-2020 15,2     21,5     28,1 12,9 30 50 74 1.021 1.024 1.027 O 6,2 30,6 0,0
03-02-2020 13,1     18,9     26,3 13,2 45 67 81 1.026 1.028 1.030 OSO 5,4 16,1 0,0
02-02-2020 15,6     19,5     26,1 10,5 48 68 82 1.026 1.028 1.029 O 7,4 27,4 0,0
01-02-2020 16,4     21,9     25,2 8,8 53 61 72 1.023 1.024 1.027 O 10,7 43,5 0,0
25-01-2020 9,9     11,4     12,1 2,2 94 95 95 1.020 1.020 1.022 ONO 0,3 6,4 0,0
24-01-2020 8,9     11,7     14,2 5,3 86 92 95 1.021 1.022 1.024 O 0,5 8,0 0,0
23-01-2020 6,4     10,5     14,8 8,4 77 88 95 1.019 1.021 1.023 SO 1,9 14,5 0,0
22-01-2020 8,2     10,5     14,1 5,9 87 94 97 1.017 1.019 1.020 OSO 2,0 17,7 11,0
21-01-2020 9,2     12,5     15,7 6,5 85 94 98 1.012 1.015 1.020 E 7,5 61,2 56,6 0,56 12,30
20-01-2020 6,7     9,2     13,1 6,4 96 97 98 1.018 1.019 1.022 E 18,9 80,5 90,4 0,62 8,10
Últims 13 mesos disponibles
01/2020 4,8 7,5 9,9 11,3 12,1 16,6 20,6 15,8 56 82 97 1.015 1.025 1.032 OSO 4,9 80,5 189,2
12/2019 6,8 12,2 19,8 15,5 14,5 19,9 27,3 20,5 50 72 94 1.002 1.019 1.033 O 7,2 72,4 270,2
11/2019 6,0 12,6 20,3 16,3 17,3 20,8 26,3 20,3 47 59 77 999 1.011 1.018 O 7,6 57,9 11,8
10/2019 12,8 16,8 21,5 20,8 17,1 25,4 30,6 17,8 42 71 86 1.007 1.016 1.022 SSO 3,6 38,6 32,2
09/2019 15,3 21,3 23,9 25,4 24,4 29,4 36,3 21,0 42 75 90 1.009 1.017 1.024 SSO 3,8 61,2 79,2
08/2019 19,6 23,6 27,8 28,2 29,3 32,7 40,9 21,3 46 72 81 1.010 1.015 1.019 S 2,9 41,8 0,2
07/2019 21,5 23,7 26,6 28,3 29,3 32,7 37,5 16,0 41 70 80 1.005 1.013 1.021 S 4,4 46,7 0,4
06/2019 13,7 18,9 23,6 24,1 22,4 29,0 35,5 21,8 39 68 82 1.008 1.015 1.022 SSE 4,6 54,7 0,0
05/2019 9,7 14,8 17,2 19,8 20,1 24,3 29,0 19,3 55 71 84 1.012 1.016 1.024 S 4,4 33,8 9,4
04/2019 9,2 12,6 15,9 16,7 15,9 21,5 31,5 22,3 43 70 96 1.000 1.013 1.025 S 5,8 51,5 235,0
03/2019 6,3 10,2 17,3 15,8 14,5 21,4 30,3 24,0 40 62 93 1.010 1.023 1.030 SSO 4,3 46,7 38,8
02/2019 5,6 8,6 12,7 13,6 14,7 19,2 25,3 19,7 36 66 85 995 1.025 1.034 SSO 4,6 67,6 0,0
01/2019 1,1 7,7 14,6 12,5 14,7 18,7 22,8 21,7 43 61 83 1.002 1.019 1.031 OSO 5,2 57,9 1,4
Tots els anys disponibles
2019 1,1 15,3 27,8 19,8 14,5 24,6 40,9 39,8 36 68 96 995 1.017 1.034 S 4,9 72,4 678,6
2018 -17,8 15,6 26,8 20,0 8,9 24,6 39,3 37 69 97 993 1.016 1.035 S 3,7 61,0 1.267,0
2017 1,9 15,3 26,8 19,9 10,2 24,6 41,2 39,3 32 70 94 997 1.019 1.036 S 3,8 66,0 472,6
2016 3,7 15,8 28,2 20,1 14,0 24,5 41,9 38,2 35 68 97 995 1.018 1.037 OSO 0,3 74,0 778,4
2015 15,6 15,6 15,6 18,9 22,2 22,2 22,2 6,6 67 67 67 1.025 1.025 1.025 29,0 387,4
2014
Temperatura (°C)
Humitat relativa (%)
Velocitat del vent i ràfega màxima (km/h)
Direcció del vent (°)
Pressió (hPa)
Precipitació (mm)
Nota sobre les dades: s'avisa a l'usuari de la provisionalitat i no oficialitat d'aquestes dades
Logo AVAMET blanc
Web allotjada a Sollutia
Llicència de Creative CommonsLa web d'AVAMET i els seus continguts estan subjectes a una llicència de
Reconeixement - No Comercial - Compartir igual
Últimes estacions:  Sant Joanet (Soci), Marines (Soci), Vilallonga - Serpis (Soci), Sorita (AVAMET), Gorga (Soci), Massalavés - Ajuntament (Soci/Inforatge), Albuixec - Polígon (Inforatge), la Torre d'en Besora (Ajuntament soci) - - -